sensor_id;sensor_type;location;lat;lon;timestamp;pressure;altitude;pressure_sealevel;temperature;humidity
73671;BME280;61968;48.178;11.566;2022-11-11T00:00:48;97166.47;;;8.57;44.52
73671;BME280;61968;48.178;11.566;2022-11-11T00:03:14;97165.63;;;8.57;44.84
73671;BME280;61968;48.178;11.566;2022-11-11T00:05:41;97162.19;;;8.56;44.91
73671;BME280;61968;48.178;11.566;2022-11-11T00:08:08;97162.72;;;8.52;44.91
73671;BME280;61968;48.178;11.566;2022-11-11T00:10:36;97162.72;;;8.52;44.88
73671;BME280;61968;48.178;11.566;2022-11-11T00:13:02;97162.56;;;8.53;44.65
73671;BME280;61968;48.178;11.566;2022-11-11T00:15:30;97172.66;;;8.50;44.57
73671;BME280;61968;48.178;11.566;2022-11-11T00:17:57;97165.91;;;8.47;44.50
73671;BME280;61968;48.178;11.566;2022-11-11T00:20:41;97171.72;;;8.43;44.70
73671;BME280;61968;48.178;11.566;2022-11-11T00:23:26;97171.56;;;8.44;44.55
73671;BME280;61968;48.178;11.566;2022-11-11T00:26:13;97163.00;;;8.42;44.85
73671;BME280;61968;48.178;11.566;2022-11-11T00:28:40;97166.19;;;8.38;44.40
73671;BME280;61968;48.178;11.566;2022-11-11T00:31:09;97166.72;;;8.33;44.69
73671;BME280;61968;48.178;11.566;2022-11-11T00:33:36;97162.47;;;8.32;44.37
73671;BME280;61968;48.178;11.566;2022-11-11T00:36:03;97166.38;;;8.36;44.52
73671;BME280;61968;48.178;11.566;2022-11-11T00:38:29;97172.00;;;8.33;44.57
73671;BME280;61968;48.178;11.566;2022-11-11T00:41:13;97165.25;;;8.30;44.73
73671;BME280;61968;48.178;11.566;2022-11-11T00:43:41;97165.47;;;8.29;44.61
73671;BME280;61968;48.178;11.566;2022-11-11T00:46:07;97159.53;;;8.27;44.93
73671;BME280;61968;48.178;11.566;2022-11-11T00:48:52;97151.53;;;8.20;44.81
73671;BME280;61968;48.178;11.566;2022-11-11T00:51:36;97146.81;;;8.16;44.75
73671;BME280;61968;48.178;11.566;2022-11-11T00:54:03;97144.00;;;8.17;44.49
73671;BME280;61968;48.178;11.566;2022-11-11T00:56:31;97132.66;;;8.17;44.62
73671;BME280;61968;48.178;11.566;2022-11-11T00:59:00;97131.19;;;8.14;44.77
73671;BME280;61968;48.178;11.566;2022-11-11T01:01:27;97131.00;;;8.16;44.77
73671;BME280;61968;48.178;11.566;2022-11-11T01:03:53;97130.28;;;8.22;44.24
73671;BME280;61968;48.178;11.566;2022-11-11T01:06:20;97128.63;;;8.21;44.29
73671;BME280;61968;48.178;11.566;2022-11-11T01:08:46;97131.63;;;8.18;43.95
73671;BME280;61968;48.178;11.566;2022-11-11T01:11:15;97134.19;;;8.11;44.32
73671;BME280;61968;48.178;11.566;2022-11-11T01:13:43;97136.97;;;8.09;44.70
73671;BME280;61968;48.178;11.566;2022-11-11T01:16:12;97138.81;;;8.09;44.47
73671;BME280;61968;48.178;11.566;2022-11-11T01:18:40;97143.25;;;8.08;44.87
73671;BME280;61968;48.178;11.566;2022-11-11T01:21:09;97144.63;;;8.04;44.99
73671;BME280;61968;48.178;11.566;2022-11-11T01:23:38;97144.16;;;8.01;44.85
73671;BME280;61968;48.178;11.566;2022-11-11T01:26:06;97150.25;;;8.01;44.60
73671;BME280;61968;48.178;11.566;2022-11-11T01:28:34;97139.34;;;8.04;44.46
73671;BME280;61968;48.178;11.566;2022-11-11T01:31:04;97143.44;;;8.07;44.30
73671;BME280;61968;48.178;11.566;2022-11-11T01:33:31;97138.72;;;8.02;44.48
73671;BME280;61968;48.178;11.566;2022-11-11T01:36:05;97140.06;;;7.98;44.62
73671;BME280;61968;48.178;11.566;2022-11-11T01:38:32;97146.16;;;7.99;44.62
73671;BME280;61968;48.178;11.566;2022-11-11T01:40:58;97148.94;;;7.97;44.53
73671;BME280;61968;48.178;11.566;2022-11-11T01:43:25;97153.25;;;7.98;44.46
73671;BME280;61968;48.178;11.566;2022-11-11T01:45:54;97152.44;;;7.98;44.69
73671;BME280;61968;48.178;11.566;2022-11-11T01:48:32;97147.84;;;7.92;44.79
73671;BME280;61968;48.178;11.566;2022-11-11T01:51:22;97151.50;;;7.91;44.49
73671;BME280;61968;48.178;11.566;2022-11-11T01:53:53;97152.19;;;7.84;44.93
73671;BME280;61968;48.178;11.566;2022-11-11T01:56:21;97156.66;;;7.84;44.87
73671;BME280;61968;48.178;11.566;2022-11-11T01:58:49;97152.41;;;7.83;44.72
73671;BME280;61968;48.178;11.566;2022-11-11T02:01:17;97154.72;;;7.78;44.75
73671;BME280;61968;48.178;11.566;2022-11-11T02:03:46;97147.47;;;7.80;44.68
73671;BME280;61968;48.178;11.566;2022-11-11T02:06:28;97145.81;;;7.79;44.57
73671;BME280;61968;48.178;11.566;2022-11-11T02:08:55;97134.31;;;7.80;44.52
73671;BME280;61968;48.178;11.566;2022-11-11T02:11:23;97151.56;;;7.82;44.39
73671;BME280;61968;48.178;11.566;2022-11-11T02:14:08;97143.66;;;7.82;44.24
73671;BME280;61968;48.178;11.566;2022-11-11T02:16:52;97142.22;;;7.80;44.30
73671;BME280;61968;48.178;11.566;2022-11-11T02:19:25;97137.31;;;7.77;44.35
73671;BME280;61968;48.178;11.566;2022-11-11T02:21:57;97134.84;;;7.75;44.47
73671;BME280;61968;48.178;11.566;2022-11-11T02:24:27;97143.75;;;7.74;44.26
73671;BME280;61968;48.178;11.566;2022-11-11T02:26:56;97149.72;;;7.68;44.74
73671;BME280;61968;48.178;11.566;2022-11-11T02:29:23;97155.78;;;7.69;44.73
73671;BME280;61968;48.178;11.566;2022-11-11T02:31:50;97148.91;;;7.68;44.76
73671;BME280;61968;48.178;11.566;2022-11-11T02:34:16;97148.59;;;7.62;44.32
73671;BME280;61968;48.178;11.566;2022-11-11T02:36:43;97158.47;;;7.60;44.25
73671;BME280;61968;48.178;11.566;2022-11-11T02:39:10;97162.78;;;7.61;44.57
73671;BME280;61968;48.178;11.566;2022-11-11T02:41:38;97170.38;;;7.56;44.59
73671;BME280;61968;48.178;11.566;2022-11-11T02:44:22;97162.16;;;7.51;44.56
73671;BME280;61968;48.178;11.566;2022-11-11T02:46:49;97165.00;;;7.41;44.51
73671;BME280;61968;48.178;11.566;2022-11-11T02:49:16;97167.00;;;7.39;44.31
73671;BME280;61968;48.178;11.566;2022-11-11T02:51:42;97168.66;;;7.40;44.70
73671;BME280;61968;48.178;11.566;2022-11-11T02:54:09;97172.09;;;7.41;44.13
73671;BME280;61968;48.178;11.566;2022-11-11T02:56:35;97168.81;;;7.39;44.56
73671;BME280;61968;48.178;11.566;2022-11-11T02:59:21;97176.88;;;7.37;44.49
73671;BME280;61968;48.178;11.566;2022-11-11T03:01:48;97178.06;;;7.35;44.33
73671;BME280;61968;48.178;11.566;2022-11-11T03:04:14;97172.66;;;7.28;44.32
73671;BME280;61968;48.178;11.566;2022-11-11T03:06:40;97178.28;;;7.25;44.46
73671;BME280;61968;48.178;11.566;2022-11-11T03:09:07;97187.91;;;7.33;44.46
73671;BME280;61968;48.178;11.566;2022-11-11T03:11:33;97192.38;;;7.32;44.25
73671;BME280;61968;48.178;11.566;2022-11-11T03:14:03;97192.72;;;7.29;44.20
73671;BME280;61968;48.178;11.566;2022-11-11T03:16:31;97205.75;;;7.23;44.14
73671;BME280;61968;48.178;11.566;2022-11-11T03:19:15;97217.59;;;7.18;44.03
73671;BME280;61968;48.178;11.566;2022-11-11T03:21:41;97214.34;;;7.16;44.12
73671;BME280;61968;48.178;11.566;2022-11-11T03:24:08;97222.50;;;7.21;43.97
73671;BME280;61968;48.178;11.566;2022-11-11T03:26:35;97223.16;;;7.24;44.24
73671;BME280;61968;48.178;11.566;2022-11-11T03:29:00;97229.91;;;7.26;44.20
73671;BME280;61968;48.178;11.566;2022-11-11T03:31:27;97228.06;;;7.27;43.74
73671;BME280;61968;48.178;11.566;2022-11-11T03:33:55;97226.28;;;7.19;44.01
73671;BME280;61968;48.178;11.566;2022-11-11T03:36:41;97230.13;;;7.16;44.10
73671;BME280;61968;48.178;11.566;2022-11-11T03:39:22;97234.06;;;7.12;43.72
73671;BME280;61968;48.178;11.566;2022-11-11T03:41:48;97226.16;;;7.12;43.84
73671;BME280;61968;48.178;11.566;2022-11-11T03:44:14;97224.69;;;7.10;43.96
73671;BME280;61968;48.178;11.566;2022-11-11T03:46:41;97225.53;;;7.10;43.88
73671;BME280;61968;48.178;11.566;2022-11-11T03:49:09;97218.63;;;7.09;44.03
73671;BME280;61968;48.178;11.566;2022-11-11T03:51:35;97218.94;;;7.14;43.91
73671;BME280;61968;48.178;11.566;2022-11-11T03:54:01;97218.63;;;7.09;44.38
73671;BME280;61968;48.178;11.566;2022-11-11T03:56:28;97229.13;;;7.09;44.18
73671;BME280;61968;48.178;11.566;2022-11-11T03:58:54;97225.88;;;7.07;44.27
73671;BME280;61968;48.178;11.566;2022-11-11T04:01:21;97222.41;;;7.07;44.61
73671;BME280;61968;48.178;11.566;2022-11-11T04:04:01;97229.19;;;7.01;44.58
73671;BME280;61968;48.178;11.566;2022-11-11T04:06:46;97223.28;;;6.99;44.41
73671;BME280;61968;48.178;11.566;2022-11-11T04:09:30;97215.38;;;7.07;44.47
73671;BME280;61968;48.178;11.566;2022-11-11T04:12:15;97212.38;;;7.10;43.98
73671;BME280;61968;48.178;11.566;2022-11-11T04:14:41;97207.13;;;7.10;44.02
73671;BME280;61968;48.178;11.566;2022-11-11T04:17:25;97206.16;;;7.03;44.58
73671;BME280;61968;48.178;11.566;2022-11-11T04:19:52;97196.28;;;7.05;44.75
73671;BME280;61968;48.178;11.566;2022-11-11T04:22:40;97193.91;;;7.18;44.17
73671;BME280;61968;48.178;11.566;2022-11-11T04:25:07;97193.09;;;7.18;44.37
73671;BME280;61968;48.178;11.566;2022-11-11T04:27:55;97198.03;;;7.13;44.24
73671;BME280;61968;48.178;11.566;2022-11-11T04:30:35;97198.75;;;7.07;44.62
73671;BME280;61968;48.178;11.566;2022-11-11T04:33:02;97195.28;;;7.06;44.93
73671;BME280;61968;48.178;11.566;2022-11-11T04:35:28;97188.88;;;7.09;44.35
73671;BME280;61968;48.178;11.566;2022-11-11T04:37:56;97194.66;;;7.04;44.80
73671;BME280;61968;48.178;11.566;2022-11-11T04:40:43;97197.91;;;7.06;44.55
73671;BME280;61968;48.178;11.566;2022-11-11T04:43:27;97202.25;;;6.99;44.51
73671;BME280;61968;48.178;11.566;2022-11-11T04:45:56;97190.78;;;6.92;44.73
73671;BME280;61968;48.178;11.566;2022-11-11T04:48:22;97194.38;;;6.91;44.98
73671;BME280;61968;48.178;11.566;2022-11-11T04:50:48;97201.94;;;6.94;44.49
73671;BME280;61968;48.178;11.566;2022-11-11T04:53:16;97207.03;;;6.95;44.86
73671;BME280;61968;48.178;11.566;2022-11-11T04:55:44;97211.28;;;6.96;44.73
73671;BME280;61968;48.178;11.566;2022-11-11T04:58:29;97201.09;;;6.93;44.85
73671;BME280;61968;48.178;11.566;2022-11-11T05:00:56;97205.72;;;6.91;44.90
73671;BME280;61968;48.178;11.566;2022-11-11T05:03:22;97199.00;;;6.89;45.05
73671;BME280;61968;48.178;11.566;2022-11-11T05:05:49;97201.44;;;6.90;44.77
73671;BME280;61968;48.178;11.566;2022-11-11T05:08:36;97204.59;;;6.86;44.87
73671;BME280;61968;48.178;11.566;2022-11-11T05:11:22;97198.00;;;6.90;44.79
73671;BME280;61968;48.178;11.566;2022-11-11T05:13:49;97197.53;;;6.86;44.81
73671;BME280;61968;48.178;11.566;2022-11-11T05:16:37;97198.72;;;6.75;45.25
73671;BME280;61968;48.178;11.566;2022-11-11T05:19:22;97195.75;;;6.79;45.03
73671;BME280;61968;48.178;11.566;2022-11-11T05:22:11;97203.47;;;6.80;44.72
73671;BME280;61968;48.178;11.566;2022-11-11T05:24:39;97196.09;;;6.67;45.11
73671;BME280;61968;48.178;11.566;2022-11-11T05:27:23;97202.84;;;6.70;45.43
73671;BME280;61968;48.178;11.566;2022-11-11T05:29:51;97217.41;;;6.89;44.57
73671;BME280;61968;48.178;11.566;2022-11-11T05:32:17;97210.81;;;6.93;44.43
73671;BME280;61968;48.178;11.566;2022-11-11T05:34:44;97212.78;;;6.91;44.58
73671;BME280;61968;48.178;11.566;2022-11-11T05:37:11;97218.72;;;6.85;44.69
73671;BME280;61968;48.178;11.566;2022-11-11T05:39:38;97228.28;;;6.86;44.72
73671;BME280;61968;48.178;11.566;2022-11-11T05:42:06;97236.66;;;6.81;44.46
73671;BME280;61968;48.178;11.566;2022-11-11T05:44:32;97240.28;;;6.80;44.88
73671;BME280;61968;48.178;11.566;2022-11-11T05:46:59;97246.97;;;6.83;44.49
73671;BME280;61968;48.178;11.566;2022-11-11T05:49:25;97253.25;;;6.82;44.72
73671;BME280;61968;48.178;11.566;2022-11-11T05:51:53;97258.84;;;6.79;44.43
73671;BME280;61968;48.178;11.566;2022-11-11T05:54:28;97263.28;;;6.78;44.50
73671;BME280;61968;48.178;11.566;2022-11-11T05:56:55;97259.34;;;6.74;44.57
73671;BME280;61968;48.178;11.566;2022-11-11T05:59:22;97264.09;;;6.70;44.43
73671;BME280;61968;48.178;11.566;2022-11-11T06:01:49;97261.13;;;6.73;44.56
73671;BME280;61968;48.178;11.566;2022-11-11T06:04:15;97259.38;;;6.66;44.58
73671;BME280;61968;48.178;11.566;2022-11-11T06:06:41;97259.03;;;6.69;44.69
73671;BME280;61968;48.178;11.566;2022-11-11T06:09:08;97262.16;;;6.64;44.89
73671;BME280;61968;48.178;11.566;2022-11-11T06:11:34;97265.44;;;6.66;44.75
73671;BME280;61968;48.178;11.566;2022-11-11T06:14:01;97267.06;;;6.67;44.68
73671;BME280;61968;48.178;11.566;2022-11-11T06:16:29;97271.19;;;6.70;44.45
73671;BME280;61968;48.178;11.566;2022-11-11T06:18:55;97270.53;;;6.68;44.51
73671;BME280;61968;48.178;11.566;2022-11-11T06:21:23;97276.63;;;6.60;44.91
73671;BME280;61968;48.178;11.566;2022-11-11T06:23:49;97276.63;;;6.60;44.54
73671;BME280;61968;48.178;11.566;2022-11-11T06:26:16;97275.47;;;6.63;44.75
73671;BME280;61968;48.178;11.566;2022-11-11T06:28:43;97290.09;;;6.65;44.37
73671;BME280;61968;48.178;11.566;2022-11-11T06:31:12;97290.91;;;6.58;45.16
73671;BME280;61968;48.178;11.566;2022-11-11T06:33:40;97294.34;;;6.58;44.92
73671;BME280;61968;48.178;11.566;2022-11-11T06:36:09;97294.03;;;6.61;44.97
73671;BME280;61968;48.178;11.566;2022-11-11T06:38:36;97300.28;;;6.68;45.00
73671;BME280;61968;48.178;11.566;2022-11-11T06:41:02;97307.50;;;6.66;44.88
73671;BME280;61968;48.178;11.566;2022-11-11T06:43:29;97323.25;;;6.66;45.22
73671;BME280;61968;48.178;11.566;2022-11-11T06:45:56;97320.63;;;6.66;44.95
73671;BME280;61968;48.178;11.566;2022-11-11T06:48:27;97317.53;;;6.71;44.80
73671;BME280;61968;48.178;11.566;2022-11-11T06:51:00;97326.22;;;6.71;44.91
73671;BME280;61968;48.178;11.566;2022-11-11T06:53:27;97329.19;;;6.68;45.10
73671;BME280;61968;48.178;11.566;2022-11-11T06:55:54;97335.75;;;6.72;45.01
73671;BME280;61968;48.178;11.566;2022-11-11T06:58:21;97331.47;;;6.71;44.77
73671;BME280;61968;48.178;11.566;2022-11-11T07:00:48;97332.97;;;6.66;44.70
73671;BME280;61968;48.178;11.566;2022-11-11T07:03:18;97329.53;;;6.65;45.00
73671;BME280;61968;48.178;11.566;2022-11-11T07:05:45;97343.00;;;6.62;44.87
73671;BME280;61968;48.178;11.566;2022-11-11T07:08:16;97353.16;;;6.57;44.94
73671;BME280;61968;48.178;11.566;2022-11-11T07:10:44;97362.88;;;6.65;44.70
73671;BME280;61968;48.178;11.566;2022-11-11T07:13:11;97363.34;;;6.68;44.55
73671;BME280;61968;48.178;11.566;2022-11-11T07:15:40;97368.63;;;6.68;44.88
73671;BME280;61968;48.178;11.566;2022-11-11T07:18:07;97373.88;;;6.68;44.92
73671;BME280;61968;48.178;11.566;2022-11-11T07:20:33;97375.16;;;6.72;44.76
73671;BME280;61968;48.178;11.566;2022-11-11T07:23:00;97369.25;;;6.70;44.57
73671;BME280;61968;48.178;11.566;2022-11-11T07:25:28;97368.28;;;6.71;44.42
73671;BME280;61968;48.178;11.566;2022-11-11T07:27:54;97369.25;;;6.70;44.26
73671;BME280;61968;48.178;11.566;2022-11-11T07:30:21;97372.22;;;6.67;43.83
73671;BME280;61968;48.178;11.566;2022-11-11T07:32:48;97381.09;;;6.66;43.98
73671;BME280;61968;48.178;11.566;2022-11-11T07:35:16;97378.31;;;6.68;44.44
73671;BME280;61968;48.178;11.566;2022-11-11T07:37:43;97374.50;;;6.70;44.31
73671;BME280;61968;48.178;11.566;2022-11-11T07:40:12;97379.94;;;6.69;44.08
73671;BME280;61968;48.178;11.566;2022-11-11T07:42:41;97380.28;;;6.66;44.37
73671;BME280;61968;48.178;11.566;2022-11-11T07:45:09;97381.28;;;6.65;44.20
73671;BME280;61968;48.178;11.566;2022-11-11T07:47:36;97387.16;;;6.67;44.13
73671;BME280;61968;48.178;11.566;2022-11-11T07:50:03;97378.13;;;6.69;44.05
73671;BME280;61968;48.178;11.566;2022-11-11T07:52:29;97374.34;;;6.72;44.24
73671;BME280;61968;48.178;11.566;2022-11-11T07:54:56;97378.13;;;6.69;44.32
73671;BME280;61968;48.178;11.566;2022-11-11T07:57:23;97374.69;;;6.77;44.54
73671;BME280;61968;48.178;11.566;2022-11-11T07:59:50;97370.88;;;6.80;44.35
73671;BME280;61968;48.178;11.566;2022-11-11T08:02:17;97372.53;;;6.81;44.65
73671;BME280;61968;48.178;11.566;2022-11-11T08:04:43;97370.72;;;6.81;44.77
73671;BME280;61968;48.178;11.566;2022-11-11T08:07:10;97370.41;;;6.84;44.61
73671;BME280;61968;48.178;11.566;2022-11-11T08:09:36;97378.78;;;6.88;44.95
73671;BME280;61968;48.178;11.566;2022-11-11T08:12:03;97371.88;;;6.95;44.76
73671;BME280;61968;48.178;11.566;2022-11-11T08:14:47;97372.03;;;6.93;45.17
73671;BME280;61968;48.178;11.566;2022-11-11T08:17:15;97376.13;;;7.04;44.88
73671;BME280;61968;48.178;11.566;2022-11-11T08:19:41;97370.53;;;7.07;45.12
73671;BME280;61968;48.178;11.566;2022-11-11T08:22:08;97355.72;;;7.06;45.41
73671;BME280;61968;48.178;11.566;2022-11-11T08:24:34;97361.66;;;7.08;45.74
73671;BME280;61968;48.178;11.566;2022-11-11T08:27:01;97353.09;;;7.06;45.59
73671;BME280;61968;48.178;11.566;2022-11-11T08:29:27;97354.91;;;7.06;46.18
73671;BME280;61968;48.178;11.566;2022-11-11T08:31:54;97348.63;;;7.15;45.60
73671;BME280;61968;48.178;11.566;2022-11-11T08:34:23;97342.69;;;7.21;45.59
73671;BME280;61968;48.178;11.566;2022-11-11T08:36:49;97349.75;;;7.29;45.30
73671;BME280;61968;48.178;11.566;2022-11-11T08:39:16;97345.78;;;7.33;45.10
73671;BME280;61968;48.178;11.566;2022-11-11T08:41:42;97344.84;;;7.26;45.81
73671;BME280;61968;48.178;11.566;2022-11-11T08:44:08;97341.41;;;7.17;45.85
73671;BME280;61968;48.178;11.566;2022-11-11T08:46:38;97338.69;;;7.41;45.37
73671;BME280;61968;48.178;11.566;2022-11-11T08:49:05;97339.25;;;7.20;46.41
73671;BME280;61968;48.178;11.566;2022-11-11T08:51:32;97331.69;;;7.17;46.88
73671;BME280;61968;48.178;11.566;2022-11-11T08:53:59;97335.00;;;7.11;46.60
73671;BME280;61968;48.178;11.566;2022-11-11T08:56:25;97330.69;;;7.18;46.36
73671;BME280;61968;48.178;11.566;2022-11-11T08:58:52;97325.69;;;7.40;46.37
73671;BME280;61968;48.178;11.566;2022-11-11T09:01:18;97331.13;;;7.38;46.64
73671;BME280;61968;48.178;11.566;2022-11-11T09:03:45;97328.16;;;7.41;46.66
73671;BME280;61968;48.178;11.566;2022-11-11T09:06:12;97333.00;;;7.21;46.26
73671;BME280;61968;48.178;11.566;2022-11-11T09:08:43;97322.69;;;7.04;45.38
73671;BME280;61968;48.178;11.566;2022-11-11T09:11:13;97325.91;;;7.30;45.61
73671;BME280;61968;48.178;11.566;2022-11-11T09:13:39;97325.50;;;7.50;45.32
73671;BME280;61968;48.178;11.566;2022-11-11T09:16:07;97326.94;;;7.60;44.68
73671;BME280;61968;48.178;11.566;2022-11-11T09:18:33;97329.78;;;7.82;44.08
73671;BME280;61968;48.178;11.566;2022-11-11T09:21:00;97335.28;;;7.72;44.39
73671;BME280;61968;48.178;11.566;2022-11-11T09:23:26;97336.97;;;7.65;45.03
73671;BME280;61968;48.178;11.566;2022-11-11T09:25:54;97336.75;;;7.75;44.54
73671;BME280;61968;48.178;11.566;2022-11-11T09:28:22;97338.31;;;7.92;44.21
73671;BME280;61968;48.178;11.566;2022-11-11T09:30:48;97335.44;;;8.02;43.96
73671;BME280;61968;48.178;11.566;2022-11-11T09:33:15;97336.63;;;7.99;44.63
73671;BME280;61968;48.178;11.566;2022-11-11T09:35:43;97341.03;;;8.07;44.69
73671;BME280;61968;48.178;11.566;2022-11-11T09:38:10;97339.84;;;8.09;44.33
73671;BME280;61968;48.178;11.566;2022-11-11T09:40:45;97342.97;;;8.13;44.07
73671;BME280;61968;48.178;11.566;2022-11-11T09:43:24;97344.69;;;8.21;43.93
73671;BME280;61968;48.178;11.566;2022-11-11T09:46:08;97342.03;;;8.29;43.63
73671;BME280;61968;48.178;11.566;2022-11-11T09:48:53;97345.16;;;8.47;43.40
73671;BME280;61968;48.178;11.566;2022-11-11T09:51:28;97346.44;;;8.51;43.05
73671;BME280;61968;48.178;11.566;2022-11-11T09:54:01;97349.84;;;8.60;43.25
73671;BME280;61968;48.178;11.566;2022-11-11T09:56:31;97358.03;;;8.65;43.58
73671;BME280;61968;48.178;11.566;2022-11-11T09:59:04;97357.34;;;8.71;43.70
73671;BME280;61968;48.178;11.566;2022-11-11T10:01:37;97353.44;;;8.82;42.81
73671;BME280;61968;48.178;11.566;2022-11-11T10:04:16;97356.28;;;8.80;42.77
73671;BME280;61968;48.178;11.566;2022-11-11T10:06:49;97351.91;;;8.88;42.79
73671;BME280;61968;48.178;11.566;2022-11-11T10:09:22;97360.28;;;8.91;42.61
73671;BME280;61968;48.178;11.566;2022-11-11T10:11:57;97362.47;;;8.88;42.40
73671;BME280;61968;48.178;11.566;2022-11-11T10:14:32;97357.03;;;8.89;42.46
73671;BME280;61968;48.178;11.566;2022-11-11T10:17:06;97350.22;;;8.95;41.99
73671;BME280;61968;48.178;11.566;2022-11-11T10:19:51;97343.00;;;9.03;42.44
73671;BME280;61968;48.178;11.566;2022-11-11T10:22:22;97346.69;;;9.17;42.57
73671;BME280;61968;48.178;11.566;2022-11-11T10:24:56;97344.78;;;9.26;42.25
73671;BME280;61968;48.178;11.566;2022-11-11T10:27:24;97346.03;;;9.30;42.38
73671;BME280;61968;48.178;11.566;2022-11-11T10:29:52;97339.94;;;9.44;42.61
73671;BME280;61968;48.178;11.566;2022-11-11T10:32:21;97332.19;;;9.43;42.74
73671;BME280;61968;48.178;11.566;2022-11-11T10:34:49;97329.66;;;9.35;43.43
73671;BME280;61968;48.178;11.566;2022-11-11T10:37:18;97338.41;;;9.35;43.99
73671;BME280;61968;48.178;11.566;2022-11-11T10:39:57;97344.13;;;9.24;44.45
73671;BME280;61968;48.178;11.566;2022-11-11T10:42:26;97347.84;;;9.44;43.98
73671;BME280;61968;48.178;11.566;2022-11-11T10:44:57;97343.97;;;9.40;44.87
73671;BME280;61968;48.178;11.566;2022-11-11T10:47:28;97331.84;;;9.31;44.96
73671;BME280;61968;48.178;11.566;2022-11-11T10:50:05;97325.63;;;9.54;44.39
73671;BME280;61968;48.178;11.566;2022-11-11T10:52:38;97335.44;;;9.60;44.61
73671;BME280;61968;48.178;11.566;2022-11-11T10:55:10;97342.94;;;9.56;44.61
73671;BME280;61968;48.178;11.566;2022-11-11T10:57:44;97335.91;;;9.63;44.69
73671;BME280;61968;48.178;11.566;2022-11-11T11:00:14;97347.56;;;9.54;44.55
73671;BME280;61968;48.178;11.566;2022-11-11T11:02:45;97355.13;;;9.57;44.98
73671;BME280;61968;48.178;11.566;2022-11-11T11:05:16;97359.78;;;9.55;45.18
73671;BME280;61968;48.178;11.566;2022-11-11T11:07:49;97363.41;;;9.69;44.98
73671;BME280;61968;48.178;11.566;2022-11-11T11:10:19;97364.03;;;9.71;44.97
73671;BME280;61968;48.178;11.566;2022-11-11T11:12:51;97365.22;;;9.68;45.09
73671;BME280;61968;48.178;11.566;2022-11-11T11:15:22;97358.75;;;9.71;45.08
73671;BME280;61968;48.178;11.566;2022-11-11T11:17:55;97356.13;;;9.86;44.80
73671;BME280;61968;48.178;11.566;2022-11-11T11:20:23;97353.09;;;9.74;45.23
73671;BME280;61968;48.178;11.566;2022-11-11T11:22:51;97349.28;;;9.91;45.39
73671;BME280;61968;48.178;11.566;2022-11-11T11:25:19;97347.78;;;10.04;44.99
73671;BME280;61968;48.178;11.566;2022-11-11T11:27:48;97350.81;;;10.01;44.80
73671;BME280;61968;48.178;11.566;2022-11-11T11:30:16;97345.16;;;10.04;44.97
73671;BME280;61968;48.178;11.566;2022-11-11T11:32:55;97345.00;;;10.12;44.56
73671;BME280;61968;48.178;11.566;2022-11-11T11:35:31;97337.22;;;10.25;44.58
73671;BME280;61968;48.178;11.566;2022-11-11T11:37:58;97338.78;;;10.41;44.53
73671;BME280;61968;48.178;11.566;2022-11-11T11:40:24;97334.53;;;10.40;44.30
73671;BME280;61968;48.178;11.566;2022-11-11T11:42:51;97339.13;;;10.31;44.01
73671;BME280;61968;48.178;11.566;2022-11-11T11:45:23;97328.47;;;10.46;43.82
73671;BME280;61968;48.178;11.566;2022-11-11T11:48:01;97330.34;;;10.52;43.68
73671;BME280;61968;48.178;11.566;2022-11-11T11:50:38;97316.63;;;10.42;43.43
73671;BME280;61968;48.178;11.566;2022-11-11T11:53:29;97317.06;;;10.46;43.74
73671;BME280;61968;48.178;11.566;2022-11-11T11:56:05;97311.09;;;10.37;43.45
73671;BME280;61968;48.178;11.566;2022-11-11T11:58:38;97317.25;;;10.44;43.43
73671;BME280;61968;48.178;11.566;2022-11-11T12:01:11;97317.50;;;10.49;43.74
73671;BME280;61968;48.178;11.566;2022-11-11T12:03:59;97308.13;;;10.47;43.80
73671;BME280;61968;48.178;11.566;2022-11-11T12:06:36;97307.91;;;10.48;43.91
73671;BME280;61968;48.178;11.566;2022-11-11T12:09:11;97309.88;;;10.61;43.26
73671;BME280;61968;48.178;11.566;2022-11-11T12:11:47;97319.81;;;10.59;43.48
73671;BME280;61968;48.178;11.566;2022-11-11T12:14:32;97323.22;;;10.53;43.64
73671;BME280;61968;48.178;11.566;2022-11-11T12:17:10;97323.91;;;10.61;43.60
73671;BME280;61968;48.178;11.566;2022-11-11T12:19:54;97322.25;;;10.60;43.77
73671;BME280;61968;48.178;11.566;2022-11-11T12:22:32;97317.25;;;10.72;43.05
73671;BME280;61968;48.178;11.566;2022-11-11T12:25:11;97318.53;;;10.76;43.18
73671;BME280;61968;48.178;11.566;2022-11-11T12:27:44;97314.31;;;10.82;43.38
73671;BME280;61968;48.178;11.566;2022-11-11T12:30:23;97308.69;;;10.92;42.91
73671;BME280;61968;48.178;11.566;2022-11-11T12:33:17;97309.97;;;11.02;42.45
73671;BME280;61968;48.178;11.566;2022-11-11T12:36:01;97307.22;;;11.17;41.63
73671;BME280;61968;48.178;11.566;2022-11-11T12:38:48;97302.16;;;11.22;41.97
73671;BME280;61968;48.178;11.566;2022-11-11T12:41:22;97299.94;;;11.33;41.89
73671;BME280;61968;48.178;11.566;2022-11-11T12:43:56;97307.31;;;11.37;41.68
73671;BME280;61968;48.178;11.566;2022-11-11T12:46:35;97302.06;;;11.44;41.18
73671;BME280;61968;48.178;11.566;2022-11-11T12:49:19;97292.91;;;11.46;41.36
73671;BME280;61968;48.178;11.566;2022-11-11T12:52:00;97303.06;;;11.43;41.36
73671;BME280;61968;48.178;11.566;2022-11-11T12:54:33;97289.03;;;11.49;41.01
73671;BME280;61968;48.178;11.566;2022-11-11T12:57:10;97295.34;;;11.48;41.07
73671;BME280;61968;48.178;11.566;2022-11-11T12:59:57;97297.59;;;11.58;40.76
73671;BME280;61968;48.178;11.566;2022-11-11T13:02:42;97300.22;;;11.51;40.67
73671;BME280;61968;48.178;11.566;2022-11-11T13:05:15;97306.13;;;11.46;40.96
73671;BME280;61968;48.178;11.566;2022-11-11T13:08:07;97310.81;;;11.44;41.05
73671;BME280;61968;48.178;11.566;2022-11-11T13:10:43;97311.22;;;11.48;40.82
73671;BME280;61968;48.178;11.566;2022-11-11T13:13:34;97313.97;;;11.26;40.73
73671;BME280;61968;48.178;11.566;2022-11-11T13:16:03;97320.31;;;11.32;40.75
73671;BME280;61968;48.178;11.566;2022-11-11T13:18:39;97316.22;;;11.29;40.82